createdAt,value
2023-04-18T00:01:18.446Z,36.90
2023-04-18T00:03:45.164Z,41.57
2023-04-18T00:06:13.069Z,35.80
2023-04-18T00:08:39.735Z,39.67
2023-04-18T00:11:06.332Z,36.70
2023-04-18T00:13:33.324Z,33.13
2023-04-18T00:16:01.035Z,36.97
2023-04-18T00:18:28.269Z,44.70
2023-04-18T00:20:55.457Z,44.03
2023-04-18T00:23:22.591Z,37.80
2023-04-18T00:25:49.173Z,33.97
2023-04-18T00:28:15.860Z,37.50
2023-04-18T00:30:42.509Z,35.70
2023-04-18T00:33:09.094Z,35.40
2023-04-18T00:35:37.404Z,39.37
2023-04-18T00:38:03.968Z,40.27
2023-04-18T00:40:30.601Z,41.70
2023-04-18T00:42:57.197Z,36.77
2023-04-18T00:45:23.814Z,36.87
2023-04-18T00:47:50.920Z,39.30
2023-04-18T00:50:17.927Z,40.00
2023-04-18T00:52:46.602Z,34.97
2023-04-18T00:55:13.194Z,43.10
2023-04-18T00:57:41.414Z,38.43
2023-04-18T01:00:09.214Z,40.77
2023-04-18T01:02:36.058Z,39.30
2023-04-18T01:05:03.428Z,33.67
2023-04-18T01:07:30.678Z,41.77
2023-04-18T01:09:58.336Z,35.93
2023-04-18T01:12:25.042Z,35.53
2023-04-18T01:14:51.620Z,33.03
2023-04-18T01:17:18.616Z,36.47
2023-04-18T01:19:46.336Z,38.93
2023-04-18T01:22:14.394Z,40.10
2023-04-18T01:24:41.747Z,38.73
2023-04-18T01:27:24.932Z,33.27
2023-04-18T01:29:51.472Z,40.20
2023-04-18T01:32:19.730Z,36.50
2023-04-18T01:34:46.552Z,36.43
2023-04-18T01:37:13.128Z,34.00
2023-04-18T01:39:39.798Z,33.77
2023-04-18T01:42:07.051Z,37.40
2023-04-18T01:44:33.639Z,33.10
2023-04-18T01:47:00.266Z,40.77
2023-04-18T01:49:26.892Z,36.77
2023-04-18T01:51:53.459Z,35.17
2023-04-18T01:54:20.166Z,36.00
2023-04-18T01:56:46.812Z,34.47
2023-04-18T01:59:14.008Z,34.33
2023-04-18T02:01:40.614Z,33.67
2023-04-18T02:04:07.321Z,41.20
2023-04-18T02:06:34.093Z,37.00
2023-04-18T02:09:00.727Z,30.47
2023-04-18T02:11:27.396Z,36.17
2023-04-18T02:13:53.966Z,34.57
2023-04-18T02:16:21.258Z,42.80
2023-04-18T02:18:48.927Z,34.07
2023-04-18T02:21:15.575Z,31.83
2023-04-18T02:23:42.170Z,32.90
2023-04-18T02:26:08.788Z,44.63
2023-04-18T02:28:38.171Z,32.67
2023-04-18T02:31:04.977Z,32.30
2023-04-18T02:33:32.206Z,29.67
2023-04-18T02:35:58.813Z,37.67
2023-04-18T02:38:25.426Z,29.83
2023-04-18T02:40:52.081Z,38.07
2023-04-18T02:43:18.667Z,29.67
2023-04-18T02:45:45.250Z,33.87
2023-04-18T02:48:11.912Z,31.10
2023-04-18T02:50:39.167Z,32.43
2023-04-18T02:53:05.765Z,28.83
2023-04-18T02:55:32.353Z,33.13
2023-04-18T02:57:58.929Z,37.73
2023-04-18T03:00:25.525Z,37.13
2023-04-18T03:02:52.708Z,32.37
2023-04-18T03:05:19.695Z,42.47
2023-04-18T03:07:47.001Z,38.67
2023-04-18T03:10:13.577Z,37.90
2023-04-18T03:12:40.152Z,36.97
2023-04-18T03:15:07.770Z,35.63
2023-04-18T03:17:35.523Z,32.50
2023-04-18T03:20:02.128Z,33.57
2023-04-18T03:22:28.678Z,31.50
2023-04-18T03:24:55.916Z,36.17
2023-04-18T03:27:22.457Z,28.10
2023-04-18T03:29:49.001Z,32.67
2023-04-18T03:32:16.551Z,30.40
2023-04-18T03:34:43.221Z,29.67
2023-04-18T03:37:09.785Z,32.53
2023-04-18T03:39:36.359Z,33.37
2023-04-18T03:42:03.685Z,31.83
2023-04-18T03:44:43.819Z,33.00
2023-04-18T03:47:10.459Z,34.07
2023-04-18T03:49:37.040Z,31.90
2023-04-18T03:52:03.822Z,36.33
2023-04-18T03:54:30.422Z,29.73
2023-04-18T03:56:58.672Z,48.73
2023-04-18T03:59:25.919Z,37.37
2023-04-18T04:01:52.610Z,36.03
2023-04-18T04:04:19.484Z,26.13
2023-04-18T04:06:46.224Z,38.63
2023-04-18T04:09:12.804Z,28.90
2023-04-18T04:11:39.619Z,30.80
2023-04-18T04:14:08.930Z,31.43
2023-04-18T04:16:36.206Z,32.73
2023-04-18T04:19:03.854Z,28.97
2023-04-18T04:21:38.807Z,35.60
2023-04-18T04:24:06.763Z,27.23
2023-04-18T04:26:37.365Z,30.23
2023-04-18T04:29:04.323Z,35.70
2023-04-18T04:31:31.140Z,38.27
2023-04-18T04:33:58.379Z,39.43
2023-04-18T04:36:26.489Z,31.47
2023-04-18T04:38:53.107Z,34.07
2023-04-18T04:41:22.958Z,35.93
2023-04-18T04:43:50.512Z,37.63
2023-04-18T04:46:19.101Z,33.23
2023-04-18T04:48:45.784Z,32.93
2023-04-18T04:51:13.076Z,34.67
2023-04-18T04:53:39.658Z,35.03
2023-04-18T04:56:06.468Z,40.10
2023-04-18T04:58:34.155Z,33.23
2023-04-18T05:01:00.797Z,39.23
2023-04-18T05:03:27.521Z,37.43
2023-04-18T05:05:54.379Z,36.27
2023-04-18T05:08:21.645Z,36.73
2023-04-18T05:10:49.321Z,33.97
2023-04-18T05:13:16.090Z,38.07
2023-04-18T05:15:42.764Z,29.17
2023-04-18T05:18:09.392Z,35.07
2023-04-18T05:20:35.990Z,35.43
2023-04-18T05:23:02.598Z,32.60
2023-04-18T05:25:30.828Z,32.70
2023-04-18T05:27:57.437Z,34.37
2023-04-18T05:30:24.059Z,34.50
2023-04-18T05:32:50.670Z,33.67
2023-04-18T05:35:17.691Z,31.50
2023-04-18T05:37:44.266Z,32.70
2023-04-18T05:40:12.623Z,37.40
2023-04-18T05:42:39.820Z,34.23
2023-04-18T05:45:07.440Z,30.43
2023-04-18T05:47:34.173Z,30.93
2023-04-18T05:50:00.754Z,31.80
2023-04-18T05:52:30.551Z,33.70
2023-04-18T05:54:57.102Z,33.17
2023-04-18T05:57:23.664Z,32.17
2023-04-18T05:59:50.881Z,30.97
2023-04-18T06:02:18.691Z,31.63
2023-04-18T06:04:46.277Z,33.00
2023-04-18T06:07:15.677Z,33.73
2023-04-18T06:09:42.249Z,29.10
2023-04-18T06:12:08.858Z,32.17
2023-04-18T06:14:35.436Z,29.77
2023-04-18T06:17:02.799Z,33.63
2023-04-18T06:19:29.314Z,27.97
2023-04-18T06:21:55.882Z,38.63
2023-04-18T06:24:23.091Z,28.07
2023-04-18T06:26:49.670Z,28.90
2023-04-18T06:29:17.367Z,28.43
2023-04-18T06:31:45.919Z,30.23
2023-04-18T06:34:13.527Z,32.60
2023-04-18T06:36:40.430Z,34.10
2023-04-18T06:39:07.063Z,34.67
2023-04-18T06:41:33.684Z,30.73
2023-04-18T06:44:04.021Z,30.80
2023-04-18T06:46:31.510Z,30.03
2023-04-18T06:48:58.290Z,34.47
2023-04-18T06:51:26.152Z,37.17
2023-04-18T06:53:53.050Z,33.67
2023-04-18T06:56:19.988Z,26.63
2023-04-18T06:58:46.871Z,32.37
2023-04-18T07:01:13.539Z,31.87
2023-04-18T07:03:40.219Z,33.33
2023-04-18T07:06:08.178Z,33.27
2023-04-18T07:08:35.618Z,28.23
2023-04-18T07:11:02.264Z,35.87
2023-04-18T07:13:29.180Z,27.53
2023-04-18T07:15:56.112Z,35.63
2023-04-18T07:18:34.246Z,28.27
2023-04-18T07:21:06.542Z,36.60
2023-04-18T07:23:33.090Z,28.93
2023-04-18T07:26:01.994Z,27.00
2023-04-18T07:28:28.651Z,33.33
2023-04-18T07:30:56.134Z,37.63
2023-04-18T07:33:22.856Z,22.27
2023-04-18T07:35:50.741Z,29.43
2023-04-18T07:38:17.447Z,29.47
2023-04-18T07:40:44.937Z,26.23
2023-04-18T07:43:12.214Z,28.87
2023-04-18T07:45:38.858Z,28.23
2023-04-18T07:48:06.056Z,28.00
2023-04-18T07:50:32.704Z,44.63
2023-04-18T07:52:59.324Z,30.97
2023-04-18T07:55:25.941Z,23.27
2023-04-18T07:57:52.517Z,27.17
2023-04-18T08:00:20.375Z,27.10
2023-04-18T08:02:47.078Z,27.57
2023-04-18T08:05:13.846Z,25.07
2023-04-18T08:07:40.721Z,29.07
2023-04-18T08:10:08.107Z,27.43
2023-04-18T08:12:35.857Z,25.80
2023-04-18T08:15:02.971Z,35.23
2023-04-18T08:17:41.873Z,36.67
2023-04-18T08:20:08.994Z,28.40
2023-04-18T08:22:37.824Z,25.00
2023-04-18T08:25:10.801Z,33.30
2023-04-18T08:27:40.405Z,27.73
2023-04-18T08:30:08.840Z,31.20
2023-04-18T08:32:36.075Z,29.63
2023-04-18T08:35:03.801Z,25.83
2023-04-18T08:37:30.886Z,33.90
2023-04-18T08:39:57.457Z,26.73
2023-04-18T08:42:24.238Z,25.17
2023-04-18T08:44:51.755Z,40.83
2023-04-18T08:47:20.061Z,34.80
2023-04-18T08:49:47.017Z,25.30
2023-04-18T08:52:16.193Z,25.97
2023-04-18T08:54:43.697Z,26.77
2023-04-18T08:57:12.972Z,26.33
2023-04-18T08:59:41.426Z,33.13
2023-04-18T09:02:12.732Z,25.17
2023-04-18T09:04:40.670Z,22.97
2023-04-18T09:07:08.778Z,28.23
2023-04-18T09:09:47.008Z,26.40
2023-04-18T09:12:14.919Z,33.10
2023-04-18T09:14:45.184Z,20.03
2023-04-18T09:17:13.869Z,26.77
2023-04-18T09:19:48.041Z,25.97
2023-04-18T09:22:15.269Z,32.13
2023-04-18T09:24:48.152Z,21.93
2023-04-18T09:27:14.684Z,22.30
2023-04-18T09:29:45.462Z,28.20
2023-04-18T09:32:22.711Z,22.13
2023-04-18T09:34:50.594Z,30.37
2023-04-18T09:37:17.281Z,26.17
2023-04-18T09:39:44.491Z,30.00
2023-04-18T09:42:12.091Z,28.27
2023-04-18T09:44:56.990Z,25.10
2023-04-18T09:47:23.645Z,21.87
2023-04-18T09:49:50.578Z,21.77
2023-04-18T09:52:19.038Z,24.80
2023-04-18T09:54:48.156Z,22.50
2023-04-18T09:57:17.909Z,30.37
2023-04-18T09:59:48.287Z,22.07
2023-04-18T10:02:20.109Z,31.40
2023-04-18T10:04:49.000Z,30.43
2023-04-18T10:07:16.979Z,27.20
2023-04-18T10:09:46.111Z,25.53
2023-04-18T10:12:13.199Z,27.47
2023-04-18T10:14:42.551Z,21.27
2023-04-18T10:17:09.582Z,26.23
2023-04-18T10:19:40.510Z,21.17
2023-04-18T10:22:07.272Z,27.57
2023-04-18T10:24:49.774Z,24.63
2023-04-18T10:27:17.158Z,28.17
2023-04-18T10:29:48.618Z,33.20
2023-04-18T10:32:15.527Z,22.50
2023-04-18T10:34:42.197Z,23.37
2023-04-18T10:37:09.169Z,27.00
2023-04-18T10:39:49.104Z,29.70
2023-04-18T10:42:15.782Z,23.13
2023-04-18T10:44:42.475Z,23.50
2023-04-18T10:47:30.894Z,23.43
2023-04-18T10:50:05.922Z,25.73
2023-04-18T10:52:33.336Z,27.83
2023-04-18T10:55:18.658Z,30.10
2023-04-18T10:57:46.600Z,19.70
2023-04-18T11:00:15.931Z,32.37
2023-04-18T11:02:51.209Z,27.33
2023-04-18T11:05:23.148Z,28.30
2023-04-18T11:07:50.117Z,24.07
2023-04-18T11:10:18.722Z,27.23
2023-04-18T11:12:45.645Z,19.80
2023-04-18T11:15:15.228Z,20.13
2023-04-18T11:17:41.866Z,28.97
2023-04-18T11:20:10.750Z,24.70
2023-04-18T11:22:48.307Z,26.23
2023-04-18T11:25:15.633Z,25.60
2023-04-18T11:27:43.921Z,24.97
2023-04-18T11:30:11.654Z,20.03
2023-04-18T11:32:38.273Z,20.53
2023-04-18T11:35:06.198Z,23.10
2023-04-18T11:37:33.539Z,24.40
2023-04-18T11:40:00.200Z,22.27
2023-04-18T11:42:27.875Z,21.57
2023-04-18T11:44:54.974Z,25.07
2023-04-18T11:47:23.080Z,25.53
2023-04-18T11:49:57.053Z,26.40
2023-04-18T11:52:25.874Z,23.67
2023-04-18T11:54:53.104Z,21.73
2023-04-18T11:57:24.562Z,33.03
2023-04-18T11:59:52.853Z,27.77
2023-04-18T12:02:20.541Z,26.20
2023-04-18T12:04:55.416Z,21.97
2023-04-18T12:07:36.620Z,26.73
2023-04-18T12:10:05.764Z,23.30
2023-04-18T12:12:32.702Z,26.93
2023-04-18T12:15:01.306Z,33.07
2023-04-18T12:17:28.361Z,23.70
2023-04-18T12:19:55.027Z,21.50
2023-04-18T12:22:46.907Z,23.90
2023-04-18T12:25:22.821Z,23.93
2023-04-18T12:27:57.273Z,36.87
2023-04-18T12:30:26.054Z,31.80
2023-04-18T12:32:54.161Z,24.70
2023-04-18T12:35:21.520Z,24.43
2023-04-18T12:37:49.087Z,26.60
2023-04-18T12:40:18.135Z,31.10
2023-04-18T12:42:46.628Z,25.23
2023-04-18T12:45:14.797Z,28.40
2023-04-18T12:47:42.745Z,31.00
2023-04-18T12:50:11.528Z,28.37
2023-04-18T12:52:40.149Z,29.67
2023-04-18T12:55:08.901Z,24.53
2023-04-18T12:57:36.004Z,27.57
2023-04-18T13:00:06.003Z,27.13
2023-04-18T13:02:34.645Z,39.73
2023-04-18T13:05:01.308Z,28.50
2023-04-18T13:07:27.974Z,28.27
2023-04-18T13:09:54.557Z,29.50
2023-04-18T13:12:21.128Z,21.20
2023-04-18T13:14:47.743Z,22.67
2023-04-18T13:17:15.513Z,34.90
2023-04-18T13:19:42.126Z,22.47
2023-04-18T13:22:08.700Z,21.67
2023-04-18T13:24:36.328Z,24.27
2023-04-18T13:27:09.528Z,27.27
2023-04-18T13:29:37.681Z,28.60
2023-04-18T13:32:04.768Z,26.63
2023-04-18T13:34:34.036Z,28.50
2023-04-18T13:37:00.688Z,24.63
2023-04-18T13:39:27.257Z,19.80
2023-04-18T13:41:54.140Z,22.83
2023-04-18T13:44:20.760Z,24.10
2023-04-18T13:46:47.564Z,23.47
2023-04-18T13:49:14.571Z,28.63
2023-04-18T13:51:42.138Z,25.30
2023-04-18T13:54:08.774Z,31.80
2023-04-18T13:56:35.534Z,30.33
2023-04-18T13:59:02.218Z,24.97
2023-04-18T14:01:28.826Z,22.20
2023-04-18T14:03:55.539Z,28.30
2023-04-18T14:06:22.379Z,16.30
2023-04-18T14:08:50.137Z,20.23
2023-04-18T14:11:17.078Z,20.07
2023-04-18T14:13:43.703Z,19.63
2023-04-18T14:16:10.434Z,22.53
2023-04-18T14:18:37.284Z,22.57
2023-04-18T14:21:04.526Z,24.23
2023-04-18T14:23:31.101Z,19.40
2023-04-18T14:25:58.368Z,21.03
2023-04-18T14:28:25.363Z,25.33
2023-04-18T14:30:52.051Z,26.23
2023-04-18T14:33:18.754Z,28.13
2023-04-18T14:35:45.341Z,19.43
2023-04-18T14:38:11.899Z,20.20
2023-04-18T14:40:38.469Z,29.03
2023-04-18T14:43:05.801Z,22.07
2023-04-18T14:45:33.431Z,19.23
2023-04-18T14:48:00.239Z,20.13
2023-04-18T14:50:26.908Z,21.80
2023-04-18T14:52:53.760Z,21.23
2023-04-18T14:55:23.488Z,21.20
2023-04-18T14:57:50.211Z,22.70
2023-04-18T15:00:18.400Z,21.57
2023-04-18T15:02:45.216Z,28.37
2023-04-18T15:05:12.583Z,22.17
2023-04-18T15:07:40.083Z,19.03
2023-04-18T15:10:08.122Z,25.57
2023-04-18T15:12:34.725Z,17.10
2023-04-18T15:15:01.414Z,18.17
2023-04-18T15:17:28.759Z,18.37
2023-04-18T15:19:55.963Z,13.30
2023-04-18T15:22:22.592Z,18.47
2023-04-18T15:24:49.291Z,14.07
2023-04-18T15:27:16.000Z,20.80
2023-04-18T15:29:42.673Z,13.10
2023-04-18T15:32:09.490Z,16.43
2023-04-18T15:34:36.955Z,12.37
2023-04-18T15:37:03.847Z,16.73
2023-04-18T15:39:30.453Z,12.80
2023-04-18T15:41:57.058Z,11.40
2023-04-18T15:44:23.693Z,12.10
2023-04-18T15:46:50.526Z,22.47
2023-04-18T15:49:17.117Z,17.03
2023-04-18T15:51:44.362Z,17.43
2023-04-18T15:54:11.116Z,13.33
2023-04-18T15:56:37.712Z,11.63
2023-04-18T15:59:04.615Z,17.43
2023-04-18T16:01:31.477Z,18.37
2023-04-18T16:03:58.195Z,13.07
2023-04-18T16:06:25.942Z,9.27
2023-04-18T16:08:53.254Z,13.43
2023-04-18T16:11:20.679Z,15.97
2023-04-18T16:13:47.293Z,7.60
2023-04-18T16:16:13.882Z,9.17
2023-04-18T16:18:40.748Z,7.80
2023-04-18T16:21:07.425Z,11.63
2023-04-18T16:23:33.998Z,10.43
2023-04-18T16:26:01.258Z,12.30
2023-04-18T16:28:29.249Z,14.73
2023-04-18T16:30:55.941Z,7.97
2023-04-18T16:33:34.694Z,11.73
2023-04-18T16:36:02.476Z,25.43
2023-04-18T16:38:29.243Z,12.63
2023-04-18T16:40:56.686Z,6.67
2023-04-18T16:43:26.080Z,12.10
2023-04-18T16:45:55.610Z,11.30
2023-04-18T16:48:27.231Z,8.80
2023-04-18T16:50:56.532Z,9.03
2023-04-18T16:53:23.500Z,18.87
2023-04-18T16:55:51.460Z,9.87
2023-04-18T16:58:18.147Z,10.73
2023-04-18T17:00:45.571Z,10.43
2023-04-18T17:03:13.985Z,6.33
2023-04-18T17:05:40.657Z,17.50
2023-04-18T17:08:07.951Z,11.93
2023-04-18T17:10:34.736Z,10.03
2023-04-18T17:13:02.136Z,12.63
2023-04-18T17:15:31.617Z,9.43
2023-04-18T17:18:00.551Z,15.27
2023-04-18T17:20:27.641Z,12.30
2023-04-18T17:22:54.332Z,14.03
2023-04-18T17:25:21.527Z,17.20
2023-04-18T17:27:48.124Z,12.37
2023-04-18T17:30:14.862Z,14.63
2023-04-18T17:32:44.953Z,15.53
2023-04-18T17:35:13.837Z,8.90
2023-04-18T17:37:41.407Z,12.17
2023-04-18T17:40:09.395Z,12.00
2023-04-18T17:42:36.269Z,10.50
2023-04-18T17:45:03.403Z,13.47
2023-04-18T17:47:30.953Z,8.73
2023-04-18T17:49:57.603Z,11.77
2023-04-18T17:52:25.867Z,11.73
2023-04-18T17:54:52.647Z,10.87
2023-04-18T17:57:19.645Z,13.10
2023-04-18T17:59:46.205Z,12.07
2023-04-18T18:02:12.907Z,10.43
2023-04-18T18:04:42.602Z,11.43
2023-04-18T18:07:09.396Z,10.90
2023-04-18T18:09:36.714Z,9.23
2023-04-18T18:12:03.594Z,13.53
2023-04-18T18:14:30.224Z,12.20
2023-04-18T18:16:56.845Z,13.87
2023-04-18T18:19:23.483Z,11.93
2023-04-18T18:21:50.564Z,10.23
2023-04-18T18:24:18.165Z,12.70
2023-04-18T18:26:45.482Z,21.60
2023-04-18T18:29:12.096Z,10.43
2023-04-18T18:31:38.926Z,13.13
2023-04-18T18:34:05.561Z,10.50
2023-04-18T18:36:32.230Z,10.43
2023-04-18T18:38:58.803Z,8.40
2023-04-18T18:41:25.363Z,10.80
2023-04-18T18:43:52.670Z,12.57
2023-04-18T18:46:19.733Z,12.13
2023-04-18T18:48:47.487Z,9.07
2023-04-18T18:51:15.359Z,10.70
2023-04-18T18:53:41.943Z,9.67
2023-04-18T18:56:08.472Z,14.27
2023-04-18T18:58:35.251Z,17.70
2023-04-18T19:01:05.084Z,14.57
2023-04-18T19:03:31.806Z,12.87
2023-04-18T19:05:58.507Z,12.23
2023-04-18T19:08:25.047Z,13.47
2023-04-18T19:10:51.753Z,10.03
2023-04-18T19:13:22.045Z,11.37
2023-04-18T19:15:48.642Z,15.23
2023-04-18T19:18:17.407Z,14.13
2023-04-18T19:20:43.998Z,14.47
2023-04-18T19:23:10.765Z,15.83
2023-04-18T19:25:37.401Z,11.80
2023-04-18T19:28:05.150Z,9.97
2023-04-18T19:30:31.903Z,11.43
2023-04-18T19:32:58.699Z,12.80
2023-04-18T19:35:26.137Z,11.53
2023-04-18T19:37:55.122Z,14.67
2023-04-18T19:40:22.973Z,11.73
2023-04-18T19:42:51.118Z,13.63
2023-04-18T19:45:17.959Z,13.43
2023-04-18T19:47:46.867Z,15.00
2023-04-18T19:50:13.945Z,12.50
2023-04-18T19:52:43.707Z,13.90
2023-04-18T19:55:10.719Z,22.13
2023-04-18T19:57:38.912Z,20.47
2023-04-18T20:00:07.472Z,10.63
2023-04-18T20:02:34.167Z,11.23
2023-04-18T20:05:00.971Z,16.77
2023-04-18T20:07:27.733Z,18.23
2023-04-18T20:09:55.038Z,12.33
2023-04-18T20:12:22.572Z,11.83
2023-04-18T20:14:49.351Z,16.63
2023-04-18T20:17:15.981Z,19.43
2023-04-18T20:19:42.777Z,15.23
2023-04-18T20:22:09.451Z,14.87
2023-04-18T20:24:38.555Z,14.70
2023-04-18T20:27:05.796Z,16.30
2023-04-18T20:29:32.479Z,15.70
2023-04-18T20:31:59.057Z,14.83
2023-04-18T20:34:25.618Z,23.70
2023-04-18T20:36:52.283Z,17.20
2023-04-18T20:39:18.982Z,18.50
2023-04-18T20:41:50.437Z,20.17
2023-04-18T20:44:20.240Z,15.50
2023-04-18T20:46:46.957Z,14.37
2023-04-18T20:49:13.845Z,23.73
2023-04-18T20:51:40.691Z,19.10
2023-04-18T20:54:07.407Z,17.03
2023-04-18T20:56:36.194Z,16.10
2023-04-18T20:59:03.897Z,17.83
2023-04-18T21:01:31.127Z,16.97
2023-04-18T21:03:58.065Z,19.63
2023-04-18T21:06:24.954Z,19.60
2023-04-18T21:08:51.696Z,15.93
2023-04-18T21:11:18.342Z,15.60
2023-04-18T21:13:47.777Z,18.20
2023-04-18T21:16:14.472Z,15.40
2023-04-18T21:18:41.863Z,21.77
2023-04-18T21:21:08.660Z,17.27
2023-04-18T21:23:41.422Z,17.47
2023-04-18T21:26:09.589Z,15.87
2023-04-18T21:28:55.392Z,17.30
2023-04-18T21:31:22.366Z,17.93
2023-04-18T21:33:52.732Z,18.63
2023-04-18T21:36:19.898Z,22.47
2023-04-18T21:38:46.637Z,20.27
2023-04-18T21:41:15.414Z,19.97
2023-04-18T21:43:42.126Z,19.77
2023-04-18T21:46:10.734Z,22.60
2023-04-18T21:48:37.575Z,23.87
2023-04-18T21:51:04.975Z,25.77
2023-04-18T21:53:31.632Z,19.90
2023-04-18T21:55:58.300Z,19.23
2023-04-18T21:58:24.893Z,26.37
2023-04-18T22:00:51.577Z,17.53
2023-04-18T22:03:18.362Z,22.80
2023-04-18T22:05:46.495Z,19.87
2023-04-18T22:08:15.430Z,23.70
2023-04-18T22:10:42.081Z,16.47
2023-04-18T22:13:08.842Z,22.20
2023-04-18T22:15:39.054Z,28.47
2023-04-18T22:18:06.267Z,27.57
2023-04-18T22:20:35.108Z,22.93
2023-04-18T22:23:03.475Z,20.80
2023-04-18T22:25:30.752Z,21.60
2023-04-18T22:27:57.418Z,19.77
2023-04-18T22:30:24.171Z,15.60
2023-04-18T22:32:50.803Z,16.37
2023-04-18T22:35:18.025Z,17.80
2023-04-18T22:37:44.628Z,16.60
2023-04-18T22:40:12.181Z,15.23
2023-04-18T22:42:39.696Z,13.60
2023-04-18T22:45:07.198Z,21.07
2023-04-18T22:47:33.841Z,15.17
2023-04-18T22:50:00.462Z,21.20
2023-04-18T22:52:27.152Z,11.77
2023-04-18T22:54:53.781Z,23.20
2023-04-18T22:57:20.417Z,17.37
2023-04-18T22:59:47.728Z,18.47
2023-04-18T23:02:14.591Z,17.47
2023-04-18T23:04:41.718Z,21.83
2023-04-18T23:07:08.590Z,17.83
2023-04-18T23:09:35.622Z,12.10
2023-04-18T23:12:02.451Z,18.03
2023-04-18T23:14:29.996Z,13.33
2023-04-18T23:16:57.335Z,11.97
2023-04-18T23:19:23.922Z,15.13
2023-04-18T23:21:50.543Z,14.67
2023-04-18T23:24:17.228Z,18.03
2023-04-18T23:26:44.039Z,16.07
2023-04-18T23:29:10.764Z,16.30
2023-04-18T23:31:37.391Z,16.97
2023-04-18T23:34:04.878Z,18.23
2023-04-18T23:36:31.624Z,16.27
2023-04-18T23:38:58.237Z,22.70
2023-04-18T23:41:24.813Z,20.17
2023-04-18T23:43:51.400Z,18.73
2023-04-18T23:46:18.141Z,18.37
2023-04-18T23:48:44.796Z,13.37
2023-04-18T23:51:12.025Z,18.57
2023-04-18T23:53:38.598Z,11.90
2023-04-18T23:56:05.784Z,23.87
2023-04-18T23:58:32.396Z,22.73
